sensor_id;sensor_type;location;lat;lon;timestamp;P1;durP1;ratioP1;P2;durP2;ratioP2
35243;SDS011;37916;52.160;21.066;2023-12-20T00:00:22;17.58;;;11.65;;
35243;SDS011;37916;52.160;21.066;2023-12-20T00:10:23;19.02;;;11.23;;
35243;SDS011;37916;52.160;21.066;2023-12-20T00:20:24;18.20;;;10.68;;
35243;SDS011;37916;52.160;21.066;2023-12-20T00:30:25;16.70;;;10.18;;
35243;SDS011;37916;52.160;21.066;2023-12-20T00:40:26;16.95;;;9.88;;
35243;SDS011;37916;52.160;21.066;2023-12-20T00:50:27;12.98;;;9.38;;
35243;SDS011;37916;52.160;21.066;2023-12-20T01:00:28;14.52;;;8.43;;
35243;SDS011;37916;52.160;21.066;2023-12-20T01:10:29;11.95;;;8.32;;
35243;SDS011;37916;52.160;21.066;2023-12-20T01:20:30;12.38;;;8.07;;
35243;SDS011;37916;52.160;21.066;2023-12-20T01:30:31;14.35;;;8.77;;
35243;SDS011;37916;52.160;21.066;2023-12-20T01:40:32;12.02;;;7.88;;
35243;SDS011;37916;52.160;21.066;2023-12-20T01:50:33;11.75;;;8.60;;
35243;SDS011;37916;52.160;21.066;2023-12-20T02:00:37;14.60;;;7.87;;
35243;SDS011;37916;52.160;21.066;2023-12-20T02:10:38;11.68;;;7.93;;
35243;SDS011;37916;52.160;21.066;2023-12-20T02:20:40;12.90;;;8.43;;
35243;SDS011;37916;52.160;21.066;2023-12-20T02:30:41;10.98;;;7.03;;
35243;SDS011;37916;52.160;21.066;2023-12-20T02:40:42;11.05;;;6.88;;
35243;SDS011;37916;52.160;21.066;2023-12-20T02:50:43;10.40;;;6.57;;
35243;SDS011;37916;52.160;21.066;2023-12-20T03:00:45;10.32;;;5.88;;
35243;SDS011;37916;52.160;21.066;2023-12-20T03:10:46;11.27;;;6.50;;
35243;SDS011;37916;52.160;21.066;2023-12-20T03:20:47;9.23;;;5.50;;
35243;SDS011;37916;52.160;21.066;2023-12-20T03:30:50;9.38;;;4.88;;
35243;SDS011;37916;52.160;21.066;2023-12-20T03:40:54;8.77;;;4.67;;
35243;SDS011;37916;52.160;21.066;2023-12-20T03:50:56;7.75;;;4.63;;
35243;SDS011;37916;52.160;21.066;2023-12-20T04:00:57;7.60;;;4.97;;
35243;SDS011;37916;52.160;21.066;2023-12-20T04:10:58;6.38;;;4.47;;
35243;SDS011;37916;52.160;21.066;2023-12-20T04:20:59;6.10;;;4.20;;
35243;SDS011;37916;52.160;21.066;2023-12-20T04:31:00;7.18;;;4.78;;
35243;SDS011;37916;52.160;21.066;2023-12-20T04:41:01;7.60;;;4.63;;
35243;SDS011;37916;52.160;21.066;2023-12-20T04:51:02;9.15;;;5.60;;
35243;SDS011;37916;52.160;21.066;2023-12-20T05:01:05;9.50;;;5.30;;
35243;SDS011;37916;52.160;21.066;2023-12-20T05:11:07;8.25;;;5.55;;
35243;SDS011;37916;52.160;21.066;2023-12-20T05:21:07;9.23;;;6.20;;
35243;SDS011;37916;52.160;21.066;2023-12-20T05:31:08;9.43;;;6.63;;
35243;SDS011;37916;52.160;21.066;2023-12-20T05:41:09;11.80;;;6.85;;
35243;SDS011;37916;52.160;21.066;2023-12-20T05:51:11;11.30;;;6.80;;
35243;SDS011;37916;52.160;21.066;2023-12-20T06:01:14;10.57;;;6.72;;
35243;SDS011;37916;52.160;21.066;2023-12-20T06:11:17;11.25;;;6.60;;
35243;SDS011;37916;52.160;21.066;2023-12-20T06:21:18;10.15;;;6.22;;
35243;SDS011;37916;52.160;21.066;2023-12-20T06:31:19;12.20;;;6.85;;
35243;SDS011;37916;52.160;21.066;2023-12-20T06:41:20;11.30;;;6.05;;
35243;SDS011;37916;52.160;21.066;2023-12-20T06:51:21;10.85;;;6.93;;
35243;SDS011;37916;52.160;21.066;2023-12-20T07:01:28;10.18;;;7.22;;
35243;SDS011;37916;52.160;21.066;2023-12-20T07:11:29;10.35;;;7.13;;
35243;SDS011;37916;52.160;21.066;2023-12-20T07:21:30;17.60;;;8.30;;
35243;SDS011;37916;52.160;21.066;2023-12-20T07:31:31;10.77;;;7.82;;
35243;SDS011;37916;52.160;21.066;2023-12-20T07:41:34;12.50;;;7.70;;
35243;SDS011;37916;52.160;21.066;2023-12-20T07:51:35;11.93;;;6.82;;
35243;SDS011;37916;52.160;21.066;2023-12-20T08:01:36;10.95;;;7.80;;
35243;SDS011;37916;52.160;21.066;2023-12-20T08:11:37;10.18;;;6.97;;
35243;SDS011;37916;52.160;21.066;2023-12-20T08:21:38;8.02;;;5.57;;
35243;SDS011;37916;52.160;21.066;2023-12-20T08:31:39;8.45;;;5.32;;
35243;SDS011;37916;52.160;21.066;2023-12-20T08:41:40;8.85;;;5.10;;
35243;SDS011;37916;52.160;21.066;2023-12-20T08:51:41;11.02;;;5.90;;
35243;SDS011;37916;52.160;21.066;2023-12-20T09:01:43;9.73;;;5.55;;
35243;SDS011;37916;52.160;21.066;2023-12-20T09:11:43;12.80;;;5.70;;
35243;SDS011;37916;52.160;21.066;2023-12-20T09:21:46;10.13;;;4.75;;
35243;SDS011;37916;52.160;21.066;2023-12-20T09:31:47;10.55;;;6.78;;
35243;SDS011;37916;52.160;21.066;2023-12-20T09:42:03;10.95;;;5.53;;
35243;SDS011;37916;52.160;21.066;2023-12-20T09:52:08;6.90;;;4.90;;
35243;SDS011;37916;52.160;21.066;2023-12-20T10:02:12;9.75;;;5.90;;
35243;SDS011;37916;52.160;21.066;2023-12-20T10:12:16;11.18;;;6.40;;
35243;SDS011;37916;52.160;21.066;2023-12-20T10:22:17;9.63;;;6.00;;
35243;SDS011;37916;52.160;21.066;2023-12-20T10:32:22;10.35;;;5.78;;
35243;SDS011;37916;52.160;21.066;2023-12-20T10:42:27;11.45;;;5.50;;
35243;SDS011;37916;52.160;21.066;2023-12-20T11:02:31;9.80;;;5.40;;
35243;SDS011;37916;52.160;21.066;2023-12-20T11:12:52;9.03;;;5.53;;
35243;SDS011;37916;52.160;21.066;2023-12-20T11:22:55;9.02;;;4.60;;
35243;SDS011;37916;52.160;21.066;2023-12-20T11:32:56;6.80;;;4.47;;
35243;SDS011;37916;52.160;21.066;2023-12-20T11:42:57;8.77;;;4.72;;
35243;SDS011;37916;52.160;21.066;2023-12-20T11:52:58;9.45;;;4.85;;
35243;SDS011;37916;52.160;21.066;2023-12-20T12:02:59;7.32;;;4.82;;
35243;SDS011;37916;52.160;21.066;2023-12-20T12:13:02;8.32;;;5.50;;
35243;SDS011;37916;52.160;21.066;2023-12-20T12:23:04;8.00;;;4.70;;
35243;SDS011;37916;52.160;21.066;2023-12-20T12:33:05;6.30;;;4.18;;
35243;SDS011;37916;52.160;21.066;2023-12-20T12:43:06;7.88;;;4.38;;
35243;SDS011;37916;52.160;21.066;2023-12-20T12:53:07;7.80;;;4.53;;
35243;SDS011;37916;52.160;21.066;2023-12-20T13:03:08;10.52;;;5.78;;
35243;SDS011;37916;52.160;21.066;2023-12-20T13:13:09;8.27;;;6.18;;
35243;SDS011;37916;52.160;21.066;2023-12-20T13:23:10;7.75;;;5.05;;
35243;SDS011;37916;52.160;21.066;2023-12-20T13:33:11;9.48;;;5.28;;
35243;SDS011;37916;52.160;21.066;2023-12-20T13:43:12;8.55;;;5.68;;
35243;SDS011;37916;52.160;21.066;2023-12-20T13:53:14;10.80;;;5.82;;
35243;SDS011;37916;52.160;21.066;2023-12-20T14:03:21;11.18;;;5.93;;
35243;SDS011;37916;52.160;21.066;2023-12-20T14:13:24;9.43;;;6.18;;
35243;SDS011;37916;52.160;21.066;2023-12-20T14:23:25;11.32;;;5.90;;
35243;SDS011;37916;52.160;21.066;2023-12-20T14:33:26;8.35;;;5.82;;
35243;SDS011;37916;52.160;21.066;2023-12-20T14:43:27;9.23;;;5.07;;
35243;SDS011;37916;52.160;21.066;2023-12-20T14:53:28;7.72;;;4.68;;
35243;SDS011;37916;52.160;21.066;2023-12-20T15:03:29;6.97;;;4.25;;
35243;SDS011;37916;52.160;21.066;2023-12-20T15:13:30;7.55;;;4.45;;
35243;SDS011;37916;52.160;21.066;2023-12-20T15:23:34;8.68;;;4.22;;
35243;SDS011;37916;52.160;21.066;2023-12-20T15:33:35;10.65;;;4.18;;
35243;SDS011;37916;52.160;21.066;2023-12-20T15:43:39;8.52;;;3.50;;
35243;SDS011;37916;52.160;21.066;2023-12-20T15:53:40;6.20;;;4.20;;
35243;SDS011;37916;52.160;21.066;2023-12-20T16:03:41;7.55;;;3.75;;
35243;SDS011;37916;52.160;21.066;2023-12-20T16:13:42;6.63;;;3.80;;
35243;SDS011;37916;52.160;21.066;2023-12-20T16:23:44;8.32;;;4.07;;
35243;SDS011;37916;52.160;21.066;2023-12-20T16:33:45;6.95;;;3.67;;
35243;SDS011;37916;52.160;21.066;2023-12-20T16:43:46;7.93;;;3.58;;
35243;SDS011;37916;52.160;21.066;2023-12-20T16:53:49;10.55;;;4.30;;
35243;SDS011;37916;52.160;21.066;2023-12-20T17:03:50;10.15;;;4.45;;
35243;SDS011;37916;52.160;21.066;2023-12-20T17:13:51;9.18;;;4.03;;
35243;SDS011;37916;52.160;21.066;2023-12-20T17:23:52;10.25;;;4.60;;
35243;SDS011;37916;52.160;21.066;2023-12-20T17:33:53;6.93;;;3.58;;
35243;SDS011;37916;52.160;21.066;2023-12-20T17:43:54;8.43;;;3.33;;
35243;SDS011;37916;52.160;21.066;2023-12-20T17:53:55;9.80;;;3.85;;
35243;SDS011;37916;52.160;21.066;2023-12-20T18:03:59;6.18;;;3.33;;
35243;SDS011;37916;52.160;21.066;2023-12-20T18:14:01;10.83;;;3.30;;
35243;SDS011;37916;52.160;21.066;2023-12-20T18:24:03;7.38;;;3.33;;
35243;SDS011;37916;52.160;21.066;2023-12-20T18:34:04;9.55;;;3.78;;
35243;SDS011;37916;52.160;21.066;2023-12-20T18:44:05;8.77;;;3.40;;
35243;SDS011;37916;52.160;21.066;2023-12-20T18:54:07;7.93;;;3.45;;
35243;SDS011;37916;52.160;21.066;2023-12-20T19:04:08;7.45;;;3.25;;
35243;SDS011;37916;52.160;21.066;2023-12-20T19:14:10;8.40;;;3.17;;
35243;SDS011;37916;52.160;21.066;2023-12-20T19:24:13;9.45;;;3.05;;
35243;SDS011;37916;52.160;21.066;2023-12-20T19:34:14;3.22;;;1.42;;
35243;SDS011;37916;52.160;21.066;2023-12-20T19:44:15;2.63;;;0.50;;
35243;SDS011;37916;52.160;21.066;2023-12-20T19:54:17;0.93;;;0.32;;
35243;SDS011;37916;52.160;21.066;2023-12-20T20:14:25;2.95;;;0.68;;
35243;SDS011;37916;52.160;21.066;2023-12-20T20:24:29;1.33;;;0.88;;
35243;SDS011;37916;52.160;21.066;2023-12-20T20:34:30;2.47;;;0.73;;
35243;SDS011;37916;52.160;21.066;2023-12-20T20:44:31;2.88;;;1.20;;
35243;SDS011;37916;52.160;21.066;2023-12-20T20:54:32;3.67;;;1.50;;
35243;SDS011;37916;52.160;21.066;2023-12-20T21:04:33;4.45;;;1.90;;
35243;SDS011;37916;52.160;21.066;2023-12-20T21:14:34;4.47;;;1.67;;
35243;SDS011;37916;52.160;21.066;2023-12-20T21:24:35;5.68;;;1.70;;
35243;SDS011;37916;52.160;21.066;2023-12-20T21:34:36;6.90;;;2.42;;
35243;SDS011;37916;52.160;21.066;2023-12-20T21:44:37;3.83;;;1.98;;
35243;SDS011;37916;52.160;21.066;2023-12-20T21:54:38;6.60;;;2.45;;
35243;SDS011;37916;52.160;21.066;2023-12-20T22:04:39;8.43;;;2.63;;
35243;SDS011;37916;52.160;21.066;2023-12-20T22:14:40;5.60;;;2.38;;
35243;SDS011;37916;52.160;21.066;2023-12-20T22:24:41;5.78;;;2.22;;
35243;SDS011;37916;52.160;21.066;2023-12-20T22:34:43;8.70;;;2.97;;
35243;SDS011;37916;52.160;21.066;2023-12-20T22:44:44;8.02;;;2.25;;
35243;SDS011;37916;52.160;21.066;2023-12-20T22:54:47;6.43;;;2.35;;
35243;SDS011;37916;52.160;21.066;2023-12-20T23:04:48;5.63;;;2.38;;
35243;SDS011;37916;52.160;21.066;2023-12-20T23:14:49;5.35;;;2.40;;
35243;SDS011;37916;52.160;21.066;2023-12-20T23:24:51;11.73;;;2.47;;
35243;SDS011;37916;52.160;21.066;2023-12-20T23:34:52;6.43;;;1.83;;
35243;SDS011;37916;52.160;21.066;2023-12-20T23:44:53;5.47;;;1.98;;
35243;SDS011;37916;52.160;21.066;2023-12-20T23:54:54;6.03;;;2.53;;
